createdAt,value
2023-03-10T00:01:25.347Z,11.68
2023-03-10T00:02:25.344Z,11.72
2023-03-10T00:03:25.315Z,11.75
2023-03-10T00:04:25.333Z,11.83
2023-03-10T00:05:25.348Z,11.77
2023-03-10T00:06:25.286Z,11.70
2023-03-10T00:07:25.273Z,11.70
2023-03-10T00:08:27.138Z,11.72
2023-03-10T00:10:25.239Z,11.91
2023-03-10T00:11:25.241Z,11.87
2023-03-10T00:13:25.211Z,12.08
2023-03-10T00:14:25.198Z,12.01
2023-03-10T00:15:25.294Z,12.03
2023-03-10T00:17:25.161Z,11.87
2023-03-10T00:18:25.172Z,11.96
2023-03-10T00:19:25.141Z,12.02
2023-03-10T00:20:25.138Z,12.11
2023-03-10T00:21:25.118Z,12.05
2023-03-10T00:22:25.109Z,11.96
2023-03-10T00:23:25.097Z,11.93
2023-03-10T00:24:25.087Z,12.06
2023-03-10T00:25:25.075Z,12.12
2023-03-10T00:26:25.067Z,12.01
2023-03-10T00:27:25.062Z,12.08
2023-03-10T00:28:25.043Z,12.05
2023-03-10T00:29:25.032Z,12.03
2023-03-10T00:30:25.029Z,12.14
2023-03-10T00:31:25.158Z,12.12
2023-03-10T00:33:24.992Z,12.12
2023-03-10T00:34:25.004Z,11.91
2023-03-10T00:35:24.972Z,11.98
2023-03-10T00:36:24.964Z,11.96
2023-03-10T00:37:24.952Z,11.90
2023-03-10T00:38:24.939Z,11.98
2023-03-10T00:39:24.931Z,11.98
2023-03-10T00:40:24.917Z,12.06
2023-03-10T00:41:24.911Z,12.05
2023-03-10T00:42:24.896Z,12.03
2023-03-10T00:43:24.885Z,12.02
2023-03-10T00:44:24.877Z,12.01
2023-03-10T00:45:24.862Z,12.02
2023-03-10T00:46:24.913Z,11.98
2023-03-10T00:47:24.842Z,12.01
2023-03-10T00:48:24.832Z,12.20
2023-03-10T00:49:24.820Z,12.35
2023-03-10T00:50:24.828Z,12.28
2023-03-10T00:51:24.798Z,12.23
2023-03-10T00:52:24.789Z,12.35
2023-03-10T00:53:24.779Z,12.19
2023-03-10T00:54:24.785Z,12.30
2023-03-10T00:57:24.739Z,12.27
2023-03-10T00:58:24.723Z,12.26
2023-03-10T00:59:24.721Z,12.30
2023-03-10T01:00:24.701Z,12.24
2023-03-10T01:03:24.665Z,12.36
2023-03-10T01:04:24.725Z,12.49
2023-03-10T01:06:24.656Z,12.52
2023-03-10T01:07:24.622Z,12.54
2023-03-10T01:08:24.613Z,12.42
2023-03-10T01:09:24.603Z,12.34
2023-03-10T01:10:24.589Z,12.45
2023-03-10T01:11:24.578Z,12.60
2023-03-10T01:12:24.570Z,12.54
2023-03-10T01:13:24.562Z,12.57
2023-03-10T01:14:24.545Z,12.56
2023-03-10T01:15:24.533Z,12.48
2023-03-10T01:16:24.590Z,12.35
2023-03-10T01:17:24.516Z,12.28
2023-03-10T01:18:24.502Z,12.41
2023-03-10T01:19:24.506Z,12.49
2023-03-10T01:20:24.478Z,12.54
2023-03-10T01:25:24.425Z,12.49
2023-03-10T01:26:24.422Z,12.42
2023-03-10T01:27:24.405Z,12.31
2023-03-10T01:28:24.393Z,12.34
2023-03-10T01:29:24.386Z,12.52
2023-03-10T01:30:24.369Z,12.59
2023-03-10T01:31:24.435Z,12.48
2023-03-10T01:32:24.362Z,12.41
2023-03-10T01:33:24.335Z,12.28
2023-03-10T01:38:24.302Z,12.21
2023-03-10T01:39:24.269Z,12.16
2023-03-10T01:40:24.259Z,12.23
2023-03-10T01:43:24.226Z,12.42
2023-03-10T01:44:24.230Z,12.26
2023-03-10T01:45:24.207Z,12.17
2023-03-10T01:46:24.269Z,12.14
2023-03-10T01:47:24.181Z,12.12
2023-03-10T01:48:24.168Z,12.16
2023-03-10T01:49:24.160Z,12.05
2023-03-10T01:50:24.145Z,12.11
2023-03-10T01:51:24.141Z,12.23
2023-03-10T01:52:24.122Z,12.16
2023-03-10T01:53:24.121Z,12.20
2023-03-10T01:54:24.128Z,12.17
2023-03-10T01:55:24.093Z,12.39
2023-03-10T01:56:24.078Z,12.27
2023-03-10T01:57:24.069Z,12.31
2023-03-10T01:58:24.056Z,12.36
2023-03-10T01:59:24.047Z,12.17
2023-03-10T02:00:24.038Z,12.11
2023-03-10T02:02:24.060Z,12.19
2023-03-10T02:03:24.004Z,12.19
2023-03-10T02:04:23.995Z,12.39
2023-03-10T02:05:23.981Z,12.31
2023-03-10T02:06:23.968Z,12.24
2023-03-10T02:07:23.958Z,12.27
2023-03-10T02:08:23.952Z,12.44
2023-03-10T02:09:23.940Z,12.27
2023-03-10T02:10:23.948Z,12.23
2023-03-10T02:11:23.915Z,12.41
2023-03-10T02:12:23.914Z,12.61
2023-03-10T02:13:23.894Z,12.75
2023-03-10T02:14:23.886Z,12.64
2023-03-10T02:15:23.878Z,12.64
2023-03-10T02:17:23.977Z,12.36
2023-03-10T02:18:23.872Z,12.30
2023-03-10T02:19:23.836Z,12.36
2023-03-10T02:20:23.818Z,12.34
2023-03-10T02:21:23.822Z,12.09
2023-03-10T02:22:23.801Z,12.39
2023-03-10T02:23:23.797Z,12.54
2023-03-10T02:24:23.775Z,12.49
2023-03-10T02:26:23.777Z,12.48
2023-03-10T02:27:23.747Z,12.54
2023-03-10T02:29:23.725Z,12.45
2023-03-10T02:30:23.734Z,12.30
2023-03-10T02:31:23.740Z,12.44
2023-03-10T02:38:23.625Z,12.38
2023-03-10T02:39:23.615Z,12.39
2023-03-10T02:40:23.605Z,12.39
2023-03-10T02:41:23.593Z,12.44
2023-03-10T02:44:23.565Z,12.21
2023-03-10T02:45:23.627Z,12.19
2023-03-10T02:46:23.539Z,12.23
2023-03-10T02:47:23.534Z,12.21
2023-03-10T02:48:24.943Z,12.28
2023-03-10T02:50:23.496Z,12.61
2023-03-10T02:51:23.482Z,12.54
2023-03-10T02:52:23.474Z,12.36
2023-03-10T02:53:23.472Z,12.45
2023-03-10T02:55:23.441Z,12.70
2023-03-10T02:56:23.427Z,12.83
2023-03-10T02:57:23.420Z,12.67
2023-03-10T02:58:23.437Z,12.72
2023-03-10T03:00:23.387Z,12.54
2023-03-10T03:01:23.459Z,12.53
2023-03-10T03:02:23.356Z,12.36
2023-03-10T03:03:23.359Z,12.45
2023-03-10T03:04:23.338Z,12.44
2023-03-10T03:05:23.329Z,12.31
2023-03-10T03:06:23.318Z,12.38
2023-03-10T03:07:23.309Z,12.44
2023-03-10T03:08:23.294Z,12.42
2023-03-10T03:09:23.285Z,12.42
2023-03-10T03:10:23.270Z,12.59
2023-03-10T03:11:23.266Z,12.46
2023-03-10T03:12:23.265Z,12.42
2023-03-10T03:13:23.239Z,12.39
2023-03-10T03:15:23.220Z,12.57
2023-03-10T03:16:23.243Z,12.49
2023-03-10T03:17:23.199Z,12.53
2023-03-10T03:18:23.187Z,12.54
2023-03-10T03:19:23.174Z,12.48
2023-03-10T03:20:23.158Z,12.53
2023-03-10T03:21:23.161Z,12.27
2023-03-10T03:22:23.144Z,12.23
2023-03-10T03:25:23.116Z,12.52
2023-03-10T03:26:23.100Z,12.65
2023-03-10T03:27:23.085Z,12.64
2023-03-10T03:28:23.070Z,12.42
2023-03-10T03:29:23.061Z,12.35
2023-03-10T03:30:23.083Z,12.27
2023-03-10T03:31:23.137Z,12.34
2023-03-10T03:32:23.045Z,12.38
2023-03-10T03:40:22.949Z,12.72
2023-03-10T03:42:22.916Z,12.61
2023-03-10T03:43:22.913Z,12.61
2023-03-10T03:44:22.912Z,12.56
2023-03-10T03:45:22.887Z,12.38
2023-03-10T03:46:22.998Z,12.56
2023-03-10T03:47:22.862Z,12.59
2023-03-10T03:48:22.858Z,12.87
2023-03-10T03:49:22.842Z,12.76
2023-03-10T03:50:22.824Z,12.75
2023-03-10T03:51:22.823Z,12.83
2023-03-10T03:53:22.800Z,12.79
2023-03-10T03:54:22.942Z,12.85
2023-03-10T03:55:22.777Z,12.76
2023-03-10T03:56:22.761Z,12.80
2023-03-10T03:57:22.753Z,12.95
2023-03-10T03:59:22.731Z,12.86
2023-03-10T04:01:22.717Z,13.04
2023-03-10T04:02:22.741Z,13.04
2023-03-10T04:03:22.743Z,13.16
2023-03-10T04:04:22.676Z,13.18
2023-03-10T04:05:22.674Z,12.98
2023-03-10T04:06:22.656Z,12.94
2023-03-10T04:07:22.647Z,12.68
2023-03-10T04:08:22.632Z,12.82
2023-03-10T04:09:22.623Z,12.91
2023-03-10T04:10:22.612Z,12.80
2023-03-10T04:11:22.599Z,12.73
2023-03-10T04:12:22.590Z,12.61
2023-03-10T04:13:22.588Z,12.70
2023-03-10T04:14:22.565Z,12.76
2023-03-10T04:16:22.544Z,12.93
2023-03-10T04:17:22.532Z,12.82
2023-03-10T04:19:22.512Z,12.60
2023-03-10T04:20:22.506Z,12.78
2023-03-10T04:22:22.479Z,12.46
2023-03-10T04:23:22.472Z,12.49
2023-03-10T04:25:22.448Z,12.39
2023-03-10T04:26:22.435Z,12.53
2023-03-10T04:27:22.424Z,12.67
2023-03-10T04:29:22.405Z,12.54
2023-03-10T04:30:22.391Z,12.70
2023-03-10T04:31:22.573Z,12.68
2023-03-10T04:32:22.502Z,12.73
2023-03-10T04:33:22.361Z,12.59
2023-03-10T04:34:22.487Z,12.64
2023-03-10T04:35:22.342Z,12.76
2023-03-10T04:37:22.321Z,12.53
2023-03-10T04:39:22.304Z,12.64
2023-03-10T04:40:22.287Z,12.41
2023-03-10T04:41:22.276Z,12.59
2023-03-10T04:43:22.252Z,12.67
2023-03-10T04:44:30.976Z,12.52
2023-03-10T04:45:23.261Z,12.41
2023-03-10T04:46:22.303Z,12.45
2023-03-10T04:47:22.222Z,12.57
2023-03-10T04:48:22.199Z,12.60
2023-03-10T04:49:22.186Z,12.61
2023-03-10T04:50:22.342Z,12.67
2023-03-10T04:51:22.167Z,12.87
2023-03-10T04:52:22.159Z,13.00
2023-03-10T04:53:22.150Z,12.82
2023-03-10T04:54:22.280Z,12.70
2023-03-10T04:55:22.120Z,12.59
2023-03-10T04:56:22.129Z,12.56
2023-03-10T04:57:22.100Z,12.41
2023-03-10T05:00:22.159Z,12.53
2023-03-10T05:01:22.083Z,12.46
2023-03-10T05:02:22.043Z,12.36
2023-03-10T05:03:22.038Z,12.23
2023-03-10T05:04:22.094Z,12.17
2023-03-10T05:05:22.010Z,12.24
2023-03-10T05:06:22.043Z,12.39
2023-03-10T05:07:21.986Z,12.30
2023-03-10T05:08:21.974Z,12.28
2023-03-10T05:09:21.964Z,12.26
2023-03-10T05:12:21.943Z,12.19
2023-03-10T05:13:21.919Z,12.20
2023-03-10T05:14:21.907Z,12.31
2023-03-10T05:15:21.898Z,12.19
2023-03-10T05:16:22.036Z,12.21
2023-03-10T05:17:21.896Z,12.34
2023-03-10T05:18:21.866Z,12.16
2023-03-10T05:19:21.853Z,12.39
2023-03-10T05:20:21.840Z,12.36
2023-03-10T05:21:21.882Z,12.35
2023-03-10T05:22:21.841Z,12.21
2023-03-10T05:23:21.813Z,12.05
2023-03-10T05:24:21.799Z,12.03
2023-03-10T05:25:21.787Z,12.17
2023-03-10T05:26:21.783Z,12.17
2023-03-10T05:27:21.772Z,12.11
2023-03-10T05:28:22.771Z,12.11
2023-03-10T05:29:21.751Z,12.01
2023-03-10T05:30:21.733Z,11.86
2023-03-10T05:32:21.749Z,12.12
2023-03-10T05:33:21.699Z,11.90
2023-03-10T05:34:21.686Z,11.96
2023-03-10T05:35:21.679Z,11.99
2023-03-10T05:36:21.669Z,11.93
2023-03-10T05:37:21.654Z,12.05
2023-03-10T05:38:21.667Z,12.01
2023-03-10T05:39:21.632Z,12.26
2023-03-10T05:40:21.621Z,12.17
2023-03-10T05:41:21.609Z,12.19
2023-03-10T05:42:21.601Z,12.28
2023-03-10T05:43:21.588Z,12.31
2023-03-10T05:44:21.583Z,12.53
2023-03-10T05:45:21.572Z,12.49
2023-03-10T05:46:21.607Z,12.26
2023-03-10T05:47:21.547Z,12.38
2023-03-10T05:48:21.537Z,12.42
2023-03-10T05:49:21.523Z,12.19
2023-03-10T05:50:21.512Z,12.35
2023-03-10T05:51:21.501Z,12.30
2023-03-10T05:52:21.493Z,12.20
2023-03-10T05:53:21.494Z,12.17
2023-03-10T05:54:21.488Z,12.06
2023-03-10T05:55:21.457Z,12.26
2023-03-10T05:56:21.449Z,12.12
2023-03-10T05:57:21.437Z,12.06
2023-03-10T05:58:21.429Z,12.21
2023-03-10T05:59:21.412Z,12.17
2023-03-10T06:00:21.405Z,12.27
2023-03-10T06:01:21.461Z,12.23
2023-03-10T06:02:21.380Z,12.14
2023-03-10T06:03:21.561Z,11.94
2023-03-10T06:04:21.405Z,12.05
2023-03-10T06:05:21.347Z,12.02
2023-03-10T06:06:21.337Z,12.11
2023-03-10T06:07:21.326Z,12.19
2023-03-10T06:08:21.317Z,12.11
2023-03-10T06:09:21.311Z,12.21
2023-03-10T06:10:21.331Z,12.14
2023-03-10T06:11:21.281Z,12.02
2023-03-10T06:12:21.274Z,12.26
2023-03-10T06:14:21.249Z,12.24
2023-03-10T06:16:21.330Z,11.86
2023-03-10T06:17:21.216Z,11.91
2023-03-10T06:19:21.199Z,12.12
2023-03-10T06:20:21.186Z,12.21
2023-03-10T06:21:21.172Z,12.17
2023-03-10T06:22:21.166Z,12.08
2023-03-10T06:23:21.151Z,12.11
2023-03-10T06:24:21.142Z,11.99
2023-03-10T06:26:21.145Z,12.11
2023-03-10T06:27:21.108Z,12.19
2023-03-10T06:28:21.100Z,12.02
2023-03-10T06:29:21.088Z,12.05
2023-03-10T06:30:21.076Z,12.01
2023-03-10T06:31:21.154Z,12.26
2023-03-10T06:32:21.151Z,12.28
2023-03-10T06:33:21.045Z,12.39
2023-03-10T06:34:21.034Z,12.26
2023-03-10T06:36:21.089Z,12.35
2023-03-10T06:37:21.003Z,12.53
2023-03-10T06:38:20.996Z,12.59
2023-03-10T06:39:21.014Z,12.38
2023-03-10T06:40:20.976Z,12.21
2023-03-10T06:41:20.959Z,12.14
2023-03-10T06:42:20.973Z,12.19
2023-03-10T06:43:20.949Z,12.20
2023-03-10T06:47:20.894Z,12.27
2023-03-10T06:48:20.890Z,12.20
2023-03-10T06:49:20.872Z,12.28
2023-03-10T06:50:20.862Z,12.34
2023-03-10T06:51:20.851Z,12.16
2023-03-10T06:54:20.819Z,12.86
2023-03-10T06:57:21.137Z,12.46
2023-03-10T06:58:20.801Z,12.42
2023-03-10T07:00:20.776Z,12.70
2023-03-10T07:01:20.823Z,12.93
2023-03-10T07:02:20.730Z,13.05
2023-03-10T07:03:20.718Z,12.67
2023-03-10T07:05:20.694Z,12.76
2023-03-10T07:07:20.674Z,12.64
2023-03-10T07:08:20.662Z,12.68
2023-03-10T07:09:20.668Z,12.70
2023-03-10T07:10:20.643Z,12.59
2023-03-10T07:11:20.632Z,12.49
2023-03-10T07:12:20.619Z,12.57
2023-03-10T07:13:20.605Z,12.80
2023-03-10T07:14:20.620Z,12.52
2023-03-10T07:15:20.586Z,12.61
2023-03-10T07:16:20.612Z,12.98
2023-03-10T07:17:20.562Z,12.90
2023-03-10T07:18:20.553Z,12.85
2023-03-10T07:19:20.539Z,12.79
2023-03-10T07:20:20.529Z,12.68
2023-03-10T07:22:20.511Z,12.68
2023-03-10T07:23:20.496Z,12.45
2023-03-10T07:25:20.473Z,12.98
2023-03-10T07:26:20.471Z,12.68
2023-03-10T07:29:20.428Z,12.80
2023-03-10T07:30:20.441Z,12.68
2023-03-10T07:31:20.451Z,12.67
2023-03-10T07:32:20.456Z,12.83
2023-03-10T07:33:20.389Z,13.09
2023-03-10T07:34:20.378Z,13.19
2023-03-10T07:35:20.364Z,13.01
2023-03-10T07:36:20.483Z,12.75
2023-03-10T07:37:20.346Z,12.72
2023-03-10T07:38:20.333Z,12.90
2023-03-10T07:39:20.320Z,12.97
2023-03-10T07:40:20.312Z,13.15
2023-03-10T07:42:20.288Z,12.90
2023-03-10T07:43:20.276Z,13.05
2023-03-10T07:44:20.274Z,13.31
2023-03-10T07:45:20.255Z,13.33
2023-03-10T07:46:20.365Z,13.43
2023-03-10T07:47:20.235Z,13.25
2023-03-10T07:48:20.225Z,13.04
2023-03-10T07:49:22.177Z,12.86
2023-03-10T07:50:20.208Z,12.95
2023-03-10T07:51:20.189Z,12.59
2023-03-10T07:52:20.181Z,12.54
2023-03-10T07:53:20.172Z,12.80
2023-03-10T07:54:20.164Z,12.79
2023-03-10T07:55:20.145Z,12.86
2023-03-10T07:58:20.114Z,12.65
2023-03-10T07:59:20.103Z,12.82
2023-03-10T08:00:20.093Z,13.19
2023-03-10T08:01:20.120Z,12.73
2023-03-10T08:02:20.103Z,12.42
2023-03-10T08:03:20.072Z,12.38
2023-03-10T08:04:20.211Z,12.39
2023-03-10T08:05:20.131Z,12.46
2023-03-10T08:08:20.006Z,12.72
2023-03-10T08:09:19.993Z,12.82
2023-03-10T08:10:19.983Z,12.83
2023-03-10T08:12:19.962Z,12.56
2023-03-10T08:13:19.982Z,12.57
2023-03-10T08:14:21.150Z,12.48
2023-03-10T08:15:19.926Z,12.56
2023-03-10T08:16:19.975Z,12.45
2023-03-10T08:17:19.907Z,12.34
2023-03-10T08:18:19.919Z,12.14
2023-03-10T08:19:19.885Z,12.17
2023-03-10T08:20:19.874Z,12.21
2023-03-10T08:26:19.812Z,12.36
2023-03-10T08:27:19.798Z,12.46
2023-03-10T08:28:19.784Z,12.57
2023-03-10T08:29:19.778Z,12.56
2023-03-10T08:30:19.762Z,12.82
2023-03-10T08:33:19.729Z,12.86
2023-03-10T08:34:19.740Z,13.01
2023-03-10T08:35:19.722Z,12.94
2023-03-10T08:36:19.727Z,12.80
2023-03-10T08:37:19.685Z,12.95
2023-03-10T08:38:19.678Z,12.90
2023-03-10T08:39:19.671Z,12.91
2023-03-10T08:40:19.653Z,12.79
2023-03-10T08:41:19.644Z,13.08
2023-03-10T08:42:19.631Z,12.75
2023-03-10T08:43:19.619Z,12.73
2023-03-10T08:44:19.608Z,12.83
2023-03-10T08:45:19.603Z,12.90
2023-03-10T08:46:19.659Z,12.97
2023-03-10T08:47:19.580Z,12.83
2023-03-10T08:48:19.570Z,12.86
2023-03-10T08:49:19.555Z,12.76
2023-03-10T08:50:19.566Z,12.60
2023-03-10T08:51:19.539Z,12.86
2023-03-10T08:52:19.526Z,12.79
2023-03-10T08:53:19.513Z,12.80
2023-03-10T08:54:19.530Z,12.75
2023-03-10T08:55:19.494Z,12.61
2023-03-10T08:56:19.481Z,12.60
2023-03-10T08:57:19.468Z,12.59
2023-03-10T08:58:19.461Z,12.59
2023-03-10T08:59:19.444Z,12.72
2023-03-10T09:00:19.438Z,12.76
2023-03-10T09:01:19.424Z,12.86
2023-03-10T09:02:19.483Z,13.15
2023-03-10T09:03:19.457Z,13.08
2023-03-10T09:04:19.394Z,12.79
2023-03-10T09:05:21.700Z,12.78
2023-03-10T09:06:19.390Z,12.73
2023-03-10T09:07:19.359Z,12.52
2023-03-10T09:08:19.362Z,12.64
2023-03-10T09:09:19.363Z,12.68
2023-03-10T09:10:19.328Z,12.49
2023-03-10T09:11:19.324Z,12.52
2023-03-10T09:12:19.310Z,12.72
2023-03-10T09:13:19.294Z,12.49
2023-03-10T09:14:19.285Z,12.38
2023-03-10T09:15:19.273Z,12.48
2023-03-10T09:16:19.328Z,12.60
2023-03-10T09:17:19.253Z,12.70
2023-03-10T09:18:19.250Z,12.64
2023-03-10T09:19:19.230Z,12.59
2023-03-10T09:20:19.221Z,12.86
2023-03-10T09:21:19.212Z,12.72
2023-03-10T09:22:19.228Z,12.48
2023-03-10T09:23:19.189Z,12.65
2023-03-10T09:24:19.174Z,12.82
2023-03-10T09:25:19.161Z,13.03
2023-03-10T09:26:19.151Z,13.38
2023-03-10T09:27:19.158Z,13.48
2023-03-10T09:28:19.128Z,13.49
2023-03-10T09:29:20.363Z,13.36
2023-03-10T09:30:19.105Z,13.19
2023-03-10T09:31:19.147Z,13.30
2023-03-10T09:32:19.287Z,13.22
2023-03-10T09:33:19.072Z,13.38
2023-03-10T09:34:19.064Z,13.62
2023-03-10T09:35:19.100Z,13.92
2023-03-10T09:36:19.124Z,13.84
2023-03-10T09:37:19.029Z,13.55
2023-03-10T09:38:19.048Z,13.53
2023-03-10T09:39:19.008Z,13.74
2023-03-10T09:40:18.999Z,13.64
2023-03-10T09:44:18.957Z,13.20
2023-03-10T09:45:18.943Z,13.19
2023-03-10T09:46:18.992Z,13.49
2023-03-10T09:47:20.163Z,13.51
2023-03-10T09:48:18.914Z,13.45
2023-03-10T09:49:18.901Z,13.51
2023-03-10T09:50:18.891Z,13.48
2023-03-10T09:51:18.879Z,13.56
2023-03-10T09:52:18.871Z,13.71
2023-03-10T09:53:18.855Z,13.46
2023-03-10T09:54:18.870Z,13.73
2023-03-10T09:55:18.837Z,13.34
2023-03-10T09:56:18.835Z,13.62
2023-03-10T09:57:18.817Z,13.74
2023-03-10T09:58:18.805Z,13.80
2023-03-10T09:59:18.790Z,13.43
2023-03-10T10:00:18.780Z,13.33
2023-03-10T10:01:18.769Z,13.70
2023-03-10T10:02:18.757Z,14.04
2023-03-10T10:03:18.795Z,13.94
2023-03-10T10:04:18.886Z,13.52
2023-03-10T10:05:18.832Z,13.76
2023-03-10T10:06:18.713Z,13.67
2023-03-10T10:07:18.712Z,13.64
2023-03-10T10:08:18.691Z,13.91
2023-03-10T10:09:18.679Z,14.02
2023-03-10T10:10:18.706Z,14.32
2023-03-10T10:11:18.662Z,14.18
2023-03-10T10:12:18.659Z,14.25
2023-03-10T10:13:18.636Z,14.08
2023-03-10T10:14:31.882Z,14.15
2023-03-10T10:15:19.648Z,14.15
2023-03-10T10:16:33.526Z,14.40
2023-03-10T10:17:19.705Z,14.62
2023-03-10T10:18:20.903Z,14.54
2023-03-10T10:19:18.568Z,14.73
2023-03-10T10:20:18.555Z,14.95
2023-03-10T10:21:18.549Z,15.21
2023-03-10T10:22:18.543Z,15.36
2023-03-10T10:23:18.524Z,15.77
2023-03-10T10:24:18.513Z,15.95
2023-03-10T10:25:18.530Z,15.51
2023-03-10T10:26:18.511Z,15.72
2023-03-10T10:27:21.461Z,15.82
2023-03-10T10:28:18.476Z,15.84
2023-03-10T10:29:18.460Z,15.43
2023-03-10T10:30:18.445Z,15.26
2023-03-10T10:31:18.530Z,15.26
2023-03-10T10:32:18.495Z,15.18
2023-03-10T10:33:18.421Z,15.06
2023-03-10T10:34:19.708Z,15.27
2023-03-10T10:35:18.396Z,15.26
2023-03-10T10:36:18.420Z,15.06
2023-03-10T10:37:18.366Z,15.03
2023-03-10T10:38:18.354Z,15.20
2023-03-10T10:39:18.346Z,15.57
2023-03-10T10:40:18.360Z,15.62
2023-03-10T10:41:18.328Z,15.58
2023-03-10T10:42:18.337Z,15.41
2023-03-10T10:43:18.306Z,15.36
2023-03-10T10:44:18.300Z,15.70
2023-03-10T10:45:18.281Z,15.67
2023-03-10T10:46:18.370Z,15.62
2023-03-10T10:47:18.264Z,15.64
2023-03-10T10:48:18.254Z,15.55
2023-03-10T10:49:18.269Z,15.20
2023-03-10T10:50:18.378Z,15.46
2023-03-10T10:51:18.224Z,15.91
2023-03-10T10:52:18.208Z,15.98
2023-03-10T10:53:18.205Z,16.09
2023-03-10T10:54:18.186Z,16.15
2023-03-10T10:55:18.174Z,16.09
2023-03-10T10:56:18.166Z,16.22
2023-03-10T10:58:18.173Z,15.58
2023-03-10T10:59:18.131Z,15.72
2023-03-10T11:00:18.122Z,15.58
2023-03-10T11:01:18.142Z,15.88
2023-03-10T11:02:18.171Z,16.23
2023-03-10T11:03:18.089Z,16.02
2023-03-10T11:04:18.080Z,15.67
2023-03-10T11:05:18.094Z,15.46
2023-03-10T11:06:18.057Z,14.87
2023-03-10T11:07:18.045Z,14.91
2023-03-10T11:10:18.021Z,15.14
2023-03-10T11:11:18.011Z,14.93
2023-03-10T11:12:17.990Z,14.98
2023-03-10T11:15:17.966Z,15.39
2023-03-10T11:16:17.960Z,15.68
2023-03-10T11:17:17.936Z,15.86
2023-03-10T11:18:17.925Z,15.58
2023-03-10T11:21:17.891Z,15.09
2023-03-10T11:22:17.879Z,15.18
2023-03-10T11:23:17.870Z,15.65
2023-03-10T11:24:17.875Z,16.09
2023-03-10T11:25:17.849Z,16.41
2023-03-10T11:26:17.835Z,16.20
2023-03-10T11:27:17.833Z,16.15
2023-03-10T11:30:17.810Z,15.30
2023-03-10T11:31:17.854Z,14.91
2023-03-10T11:32:17.825Z,15.23
2023-03-10T11:33:17.763Z,15.32
2023-03-10T11:34:17.753Z,15.51
2023-03-10T11:35:17.737Z,15.24
2023-03-10T11:36:17.832Z,15.10
2023-03-10T11:37:17.717Z,15.26
2023-03-10T11:38:17.704Z,15.61
2023-03-10T11:39:17.696Z,15.18
2023-03-10T11:40:17.682Z,15.55
2023-03-10T11:41:17.675Z,15.97
2023-03-10T11:42:17.677Z,16.31
2023-03-10T11:43:17.656Z,16.15
2023-03-10T11:45:17.632Z,15.91
2023-03-10T11:46:17.739Z,16.08
2023-03-10T11:47:17.612Z,16.01
2023-03-10T11:48:17.599Z,15.86
2023-03-10T11:49:17.590Z,16.17
2023-03-10T11:50:17.781Z,15.92
2023-03-10T11:51:17.564Z,16.25
2023-03-10T11:52:17.571Z,16.22
2023-03-10T11:53:17.550Z,16.34
2023-03-10T11:55:17.524Z,15.91
2023-03-10T11:56:17.509Z,15.70
2023-03-10T11:57:17.503Z,16.04
2023-03-10T11:58:17.488Z,16.00
2023-03-10T11:59:17.475Z,15.83
2023-03-10T12:00:17.599Z,15.84
2023-03-10T12:01:17.458Z,15.65
2023-03-10T12:02:17.467Z,15.41
2023-03-10T12:03:17.491Z,15.34
2023-03-10T12:04:17.426Z,15.24
2023-03-10T12:07:17.385Z,14.98
2023-03-10T12:08:17.378Z,14.96
2023-03-10T12:09:17.365Z,15.18
2023-03-10T12:10:17.420Z,15.21
2023-03-10T12:11:17.342Z,14.80
2023-03-10T12:12:17.330Z,14.91
2023-03-10T12:13:17.319Z,14.87
2023-03-10T12:14:17.308Z,14.98
2023-03-10T12:15:17.305Z,15.05
2023-03-10T12:16:17.430Z,14.58
2023-03-10T12:17:17.291Z,14.62
2023-03-10T12:18:17.294Z,14.60
2023-03-10T12:19:17.259Z,14.02
2023-03-10T12:20:17.370Z,13.82
2023-03-10T12:22:17.222Z,13.38
2023-03-10T12:23:17.212Z,13.22
2023-03-10T12:24:17.200Z,13.04
2023-03-10T12:25:17.192Z,12.91
2023-03-10T12:26:17.178Z,12.86
2023-03-10T12:31:17.155Z,13.05
2023-03-10T12:32:17.160Z,12.60
2023-03-10T12:33:17.103Z,12.42
2023-03-10T12:34:17.106Z,12.61
2023-03-10T12:35:17.081Z,12.64
2023-03-10T12:36:17.121Z,12.75
2023-03-10T12:37:17.057Z,12.80
2023-03-10T12:38:17.043Z,12.61
2023-03-10T12:39:17.037Z,12.73
2023-03-10T12:40:17.021Z,12.70
2023-03-10T12:41:17.012Z,12.79
2023-03-10T12:42:16.999Z,12.72
2023-03-10T12:44:16.978Z,12.72
2023-03-10T12:45:16.968Z,12.75
2023-03-10T12:47:16.947Z,12.61
2023-03-10T12:48:16.957Z,12.65
2023-03-10T12:49:16.925Z,12.67
2023-03-10T12:50:16.942Z,12.31
2023-03-10T12:51:18.430Z,12.70
2023-03-10T12:52:16.893Z,12.53
2023-03-10T12:53:16.881Z,12.59
2023-03-10T12:54:16.868Z,12.42
2023-03-10T12:55:16.889Z,12.60
2023-03-10T12:56:16.847Z,12.83
2023-03-10T12:57:17.028Z,12.93
2023-03-10T12:58:16.831Z,12.97
2023-03-10T12:59:16.813Z,12.95
2023-03-10T13:00:16.805Z,13.04
2023-03-10T13:01:16.866Z,12.67
2023-03-10T13:02:16.781Z,12.49
2023-03-10T13:03:16.830Z,12.56
2023-03-10T13:04:16.769Z,12.61
2023-03-10T13:06:16.764Z,12.26
2023-03-10T13:07:16.735Z,12.45
2023-03-10T13:08:16.724Z,12.98
2023-03-10T13:09:16.718Z,13.00
2023-03-10T13:10:16.704Z,12.86
2023-03-10T13:11:16.686Z,12.73
2023-03-10T13:12:16.679Z,12.42
2023-03-10T13:13:16.672Z,12.73
2023-03-10T13:14:16.655Z,12.94
2023-03-10T13:16:18.753Z,13.01
2023-03-10T13:17:16.619Z,12.83
2023-03-10T13:18:16.610Z,12.73
2023-03-10T13:19:16.597Z,12.44
2023-03-10T13:20:16.593Z,12.36
2023-03-10T13:21:16.576Z,12.39
2023-03-10T13:22:16.638Z,12.73
2023-03-10T13:23:16.554Z,13.03
2023-03-10T13:24:16.545Z,12.75
2023-03-10T13:25:16.531Z,12.64
2023-03-10T13:26:16.529Z,12.87
2023-03-10T13:27:16.511Z,12.39
2023-03-10T13:28:16.503Z,12.17
2023-03-10T13:29:16.490Z,12.20
2023-03-10T13:30:16.525Z,11.93
2023-03-10T13:31:16.571Z,11.83
2023-03-10T13:32:16.506Z,11.93
2023-03-10T13:33:16.445Z,11.93
2023-03-10T13:34:16.437Z,11.75
2023-03-10T13:35:16.424Z,11.77
2023-03-10T13:36:16.503Z,11.83
2023-03-10T13:37:16.427Z,11.63
2023-03-10T13:39:16.429Z,11.63
2023-03-10T13:40:16.377Z,11.69
2023-03-10T13:41:16.359Z,11.78
2023-03-10T13:42:16.348Z,11.83
2023-03-10T13:43:16.340Z,11.96
2023-03-10T13:44:16.329Z,11.83
2023-03-10T13:45:16.318Z,11.91
2023-03-10T13:46:16.438Z,11.91
2023-03-10T13:47:16.293Z,12.16
2023-03-10T13:49:16.273Z,12.24
2023-03-10T13:50:16.274Z,12.23
2023-03-10T13:51:16.249Z,12.12
2023-03-10T13:52:16.237Z,11.90
2023-03-10T13:53:16.228Z,12.06
2023-03-10T13:54:16.247Z,12.01
2023-03-10T13:55:16.207Z,12.05
2023-03-10T13:56:16.197Z,11.96
2023-03-10T13:57:16.186Z,12.21
2023-03-10T13:58:16.210Z,12.42
2023-03-10T13:59:16.165Z,12.54
2023-03-10T14:00:16.170Z,12.45
2023-03-10T14:01:16.219Z,12.09
2023-03-10T14:02:16.133Z,11.87
2023-03-10T14:03:16.144Z,11.59
2023-03-10T14:05:16.097Z,11.87
2023-03-10T14:06:16.084Z,11.77
2023-03-10T14:07:16.074Z,11.70
2023-03-10T14:08:16.065Z,11.80
2023-03-10T14:09:16.073Z,11.99
2023-03-10T14:10:16.065Z,12.03
2023-03-10T14:11:16.036Z,11.99
2023-03-10T14:12:16.019Z,12.02
2023-03-10T14:13:16.010Z,11.87
2023-03-10T14:14:15.997Z,11.93
2023-03-10T14:15:15.997Z,11.90
2023-03-10T14:16:16.006Z,11.98
2023-03-10T14:17:15.979Z,12.06
2023-03-10T14:18:15.950Z,12.16
2023-03-10T14:19:15.939Z,12.34
2023-03-10T14:20:15.931Z,12.27
2023-03-10T14:21:15.921Z,12.42
2023-03-10T14:22:15.904Z,12.49
2023-03-10T14:23:15.895Z,12.53
2023-03-10T14:24:15.885Z,12.20
2023-03-10T14:25:15.878Z,12.11
2023-03-10T14:26:15.907Z,11.93
2023-03-10T14:27:15.855Z,12.05
2023-03-10T14:28:16.932Z,11.90
2023-03-10T14:29:15.827Z,11.98
2023-03-10T14:30:15.824Z,12.01
2023-03-10T14:31:15.838Z,12.01
2023-03-10T14:32:15.817Z,12.16
2023-03-10T14:33:15.788Z,12.11
2023-03-10T14:35:15.762Z,12.28
2023-03-10T14:36:15.819Z,12.20
2023-03-10T14:38:15.736Z,11.96
2023-03-10T14:39:15.727Z,11.93
2023-03-10T14:42:15.732Z,11.84
2023-03-10T14:43:15.683Z,11.77
2023-03-10T14:44:15.671Z,11.78
2023-03-10T14:45:15.652Z,11.78
2023-03-10T14:46:15.956Z,11.72
2023-03-10T14:47:15.830Z,11.86
2023-03-10T14:48:15.823Z,11.77
2023-03-10T14:49:15.617Z,11.70
2023-03-10T14:50:15.598Z,11.88
2023-03-10T14:51:25.628Z,12.02
2023-03-10T14:52:15.577Z,12.14
2023-03-10T14:53:15.576Z,11.91
2023-03-10T14:56:15.536Z,11.88
2023-03-10T14:57:15.519Z,12.06
2023-03-10T14:58:15.532Z,12.14
2023-03-10T14:59:15.502Z,11.98
2023-03-10T15:00:15.505Z,11.81